createdAt,value
2022-08-29T00:01:12.701Z,19.92
2022-08-29T00:03:41.043Z,19.91
2022-08-29T00:06:09.263Z,19.76
2022-08-29T00:08:36.477Z,19.74
2022-08-29T00:11:04.050Z,19.73
2022-08-29T00:13:31.335Z,19.71
2022-08-29T00:15:58.863Z,19.69
2022-08-29T00:18:26.187Z,19.68
2022-08-29T00:20:53.812Z,19.66
2022-08-29T00:23:21.157Z,19.54
2022-08-29T00:25:51.810Z,19.50
2022-08-29T00:28:19.747Z,19.50
2022-08-29T00:30:46.931Z,19.50
2022-08-29T00:33:14.214Z,19.49
2022-08-29T00:35:43.170Z,19.45
2022-08-29T00:38:13.312Z,19.41
2022-08-29T00:40:51.850Z,19.42
2022-08-29T00:43:25.767Z,19.44
2022-08-29T00:46:14.781Z,19.44
2022-08-29T00:48:42.666Z,19.42
2022-08-29T00:51:15.226Z,19.36
2022-08-29T00:53:45.287Z,19.31
2022-08-29T00:56:15.782Z,19.31
2022-08-29T00:58:43.557Z,19.34
2022-08-29T01:01:10.645Z,19.27
2022-08-29T01:03:41.037Z,19.27
2022-08-29T01:06:11.248Z,19.23
2022-08-29T01:08:38.313Z,19.20
2022-08-29T01:11:24.183Z,19.19
2022-08-29T01:13:53.699Z,19.20
2022-08-29T01:16:21.480Z,19.18
2022-08-29T01:18:51.966Z,19.17
2022-08-29T01:21:34.324Z,19.22
2022-08-29T01:24:16.476Z,19.19
2022-08-29T01:26:45.643Z,19.14
2022-08-29T01:29:13.485Z,19.15
2022-08-29T01:31:57.340Z,19.08
2022-08-29T01:34:27.966Z,19.06
2022-08-29T01:37:03.051Z,19.04
2022-08-29T01:39:40.518Z,19.05
2022-08-29T01:42:13.257Z,19.03
2022-08-29T01:44:41.668Z,19.03
2022-08-29T01:47:09.130Z,19.03
2022-08-29T01:49:38.480Z,19.03
2022-08-29T01:52:08.764Z,19.01
2022-08-29T01:54:36.606Z,18.94
2022-08-29T01:57:04.014Z,18.92
2022-08-29T01:59:32.021Z,18.84
2022-08-29T02:02:19.879Z,18.83
2022-08-29T02:04:48.549Z,18.83
2022-08-29T02:07:17.818Z,18.84
2022-08-29T02:09:45.839Z,18.84
2022-08-29T02:12:21.793Z,18.84
2022-08-29T02:14:51.197Z,18.87
2022-08-29T02:17:25.585Z,18.79
2022-08-29T02:19:54.046Z,18.80
2022-08-29T02:22:21.572Z,18.76
2022-08-29T02:24:48.846Z,18.77
2022-08-29T02:27:15.843Z,18.76
2022-08-29T02:29:42.710Z,18.75
2022-08-29T02:32:12.262Z,18.67
2022-08-29T02:34:43.927Z,18.68
2022-08-29T02:37:12.291Z,18.67
2022-08-29T02:39:39.555Z,18.65
2022-08-29T02:42:06.927Z,18.64
2022-08-29T02:44:34.114Z,18.64
2022-08-29T02:47:01.376Z,18.58
2022-08-29T02:49:28.592Z,18.47
2022-08-29T02:51:57.818Z,18.48
2022-08-29T02:54:24.991Z,18.45
2022-08-29T02:56:52.585Z,18.46
2022-08-29T02:59:19.906Z,18.44
2022-08-29T03:01:47.051Z,18.45
2022-08-29T03:04:14.260Z,18.44
2022-08-29T03:06:41.721Z,18.41
2022-08-29T03:09:09.118Z,18.39
2022-08-29T03:11:36.244Z,18.40
2022-08-29T03:14:03.397Z,18.35
2022-08-29T03:16:30.570Z,18.35
2022-08-29T03:18:57.824Z,18.35
2022-08-29T03:21:26.707Z,18.33
2022-08-29T03:23:56.560Z,18.35
2022-08-29T03:26:24.061Z,18.36
2022-08-29T03:28:51.327Z,18.35
2022-08-29T03:31:19.113Z,18.30
2022-08-29T03:33:46.305Z,18.29
2022-08-29T03:36:14.229Z,18.27
2022-08-29T03:38:48.136Z,18.24
2022-08-29T03:41:24.764Z,18.22
2022-08-29T03:43:57.158Z,18.21
2022-08-29T03:46:29.357Z,18.22
2022-08-29T03:48:56.293Z,18.22
2022-08-29T03:51:29.352Z,18.20
2022-08-29T03:53:56.886Z,18.16
2022-08-29T03:56:24.438Z,18.12
2022-08-29T03:58:53.250Z,18.08
2022-08-29T04:01:24.631Z,18.11
2022-08-29T04:03:52.320Z,18.10
2022-08-29T04:06:20.361Z,18.10
2022-08-29T04:08:47.925Z,18.08
2022-08-29T04:11:16.281Z,18.01
2022-08-29T04:13:44.949Z,17.99
2022-08-29T04:16:13.680Z,18.02
2022-08-29T04:18:40.564Z,18.04
2022-08-29T04:21:07.879Z,18.02
2022-08-29T04:23:36.267Z,18.00
2022-08-29T04:26:27.121Z,17.97
2022-08-29T04:28:51.262Z,17.92
2022-08-29T04:31:20.428Z,17.92
2022-08-29T04:33:48.497Z,17.91
2022-08-29T04:36:15.572Z,17.92
2022-08-29T04:38:43.129Z,17.92
2022-08-29T04:41:15.463Z,17.94
2022-08-29T04:43:43.203Z,17.96
2022-08-29T04:46:24.109Z,17.93
2022-08-29T04:48:52.687Z,17.97
2022-08-29T04:51:19.727Z,17.98
2022-08-29T04:53:46.771Z,17.96
2022-08-29T04:56:14.121Z,17.99
2022-08-29T04:58:44.150Z,17.99
2022-08-29T05:01:16.395Z,17.99
2022-08-29T05:03:43.793Z,18.00
2022-08-29T05:06:12.871Z,18.01
2022-08-29T05:08:41.940Z,18.04
2022-08-29T05:11:22.711Z,18.08
2022-08-29T05:13:50.357Z,18.13
2022-08-29T05:16:18.199Z,18.19
2022-08-29T05:18:46.335Z,18.29
2022-08-29T05:21:15.351Z,18.31
2022-08-29T05:23:42.175Z,18.31
2022-08-29T05:26:09.345Z,18.40
2022-08-29T05:28:36.745Z,18.50
2022-08-29T05:31:04.014Z,18.56
2022-08-29T05:33:31.220Z,18.64
2022-08-29T05:35:58.799Z,18.73
2022-08-29T05:38:25.576Z,18.87
2022-08-29T05:40:52.306Z,19.00
2022-08-29T05:43:20.339Z,19.13
2022-08-29T05:45:47.122Z,19.25
2022-08-29T05:48:15.138Z,19.37
2022-08-29T05:50:43.734Z,19.49
2022-08-29T05:53:13.001Z,19.62
2022-08-29T05:55:44.025Z,19.79
2022-08-29T05:58:11.383Z,19.94
2022-08-29T06:00:40.090Z,20.02
2022-08-29T06:03:08.038Z,20.08
2022-08-29T06:05:34.780Z,20.17
2022-08-29T06:08:01.870Z,20.32
2022-08-29T06:10:28.817Z,20.47
2022-08-29T06:12:55.607Z,20.59
2022-08-29T06:15:22.598Z,20.72
2022-08-29T06:17:49.689Z,20.84
2022-08-29T06:20:16.478Z,20.91
2022-08-29T06:22:43.401Z,20.91
2022-08-29T06:25:34.996Z,20.97
2022-08-29T06:27:57.236Z,20.99
2022-08-29T06:30:23.958Z,21.06
2022-08-29T06:32:50.698Z,21.09
2022-08-29T06:35:17.404Z,21.16
2022-08-29T06:37:44.381Z,21.21
2022-08-29T06:40:11.714Z,21.27
2022-08-29T06:42:38.551Z,21.39
2022-08-29T06:45:06.989Z,21.45
2022-08-29T06:47:34.467Z,21.42
2022-08-29T06:50:01.264Z,21.38
2022-08-29T06:52:28.731Z,21.36
2022-08-29T06:54:55.571Z,21.37
2022-08-29T06:57:22.547Z,21.39
2022-08-29T06:59:49.503Z,21.50
2022-08-29T07:02:16.393Z,21.56
2022-08-29T07:04:44.375Z,21.62
2022-08-29T07:07:11.315Z,21.66
2022-08-29T07:09:38.182Z,21.71
2022-08-29T07:12:06.096Z,21.69
2022-08-29T07:14:33.054Z,21.78
2022-08-29T07:17:00.799Z,21.87
2022-08-29T07:19:27.722Z,22.01
2022-08-29T07:21:57.951Z,22.16
2022-08-29T07:24:25.279Z,22.26
2022-08-29T07:26:52.501Z,22.36
2022-08-29T07:29:22.430Z,22.36
2022-08-29T07:31:49.379Z,22.26
2022-08-29T07:34:20.624Z,22.33
2022-08-29T07:36:47.858Z,22.45
2022-08-29T07:39:16.871Z,22.46
2022-08-29T07:41:44.542Z,22.52
2022-08-29T07:44:12.980Z,22.57
2022-08-29T07:46:39.817Z,22.64
2022-08-29T07:49:07.220Z,22.78
2022-08-29T07:51:34.826Z,22.89
2022-08-29T07:54:01.858Z,22.97
2022-08-29T07:56:37.819Z,23.10
2022-08-29T07:59:06.126Z,23.21
2022-08-29T08:01:33.307Z,23.29
2022-08-29T08:04:00.168Z,23.32
2022-08-29T08:06:27.691Z,23.35
2022-08-29T08:08:55.496Z,23.39
2022-08-29T08:11:23.514Z,23.46
2022-08-29T08:13:50.218Z,23.55
2022-08-29T08:16:20.427Z,23.71
2022-08-29T08:18:47.259Z,23.93
2022-08-29T08:21:14.596Z,24.03
2022-08-29T08:23:41.873Z,24.11
2022-08-29T08:26:09.931Z,24.21
2022-08-29T08:28:37.033Z,24.29
2022-08-29T08:31:07.559Z,24.45
2022-08-29T08:33:35.874Z,24.60
2022-08-29T08:36:06.183Z,24.69
2022-08-29T08:38:33.003Z,24.79
2022-08-29T08:41:42.092Z,24.93
2022-08-29T08:44:28.937Z,25.06
2022-08-29T08:47:01.684Z,25.14
2022-08-29T08:49:40.074Z,25.21
2022-08-29T08:52:11.242Z,25.26
2022-08-29T08:54:50.616Z,25.40
2022-08-29T08:57:18.395Z,25.51
2022-08-29T08:59:48.262Z,25.57
2022-08-29T09:02:49.042Z,25.64
2022-08-29T09:05:31.031Z,25.72
2022-08-29T09:08:16.265Z,25.75
2022-08-29T09:11:04.754Z,25.84
2022-08-29T09:14:06.687Z,25.92
2022-08-29T09:16:40.812Z,26.04
2022-08-29T09:19:10.965Z,26.11
2022-08-29T09:21:46.625Z,26.17
2022-08-29T09:24:23.758Z,26.31
2022-08-29T09:26:50.542Z,26.42
2022-08-29T09:29:21.091Z,26.55
2022-08-29T09:32:05.905Z,26.55
2022-08-29T09:35:06.901Z,26.58
2022-08-29T09:37:33.177Z,26.59
2022-08-29T09:40:07.536Z,26.57
2022-08-29T09:42:53.511Z,26.60
2022-08-29T09:45:25.194Z,26.57
2022-08-29T09:48:18.808Z,26.63
2022-08-29T09:50:46.565Z,26.71
2022-08-29T09:53:24.621Z,26.78
2022-08-29T09:55:52.503Z,26.88
2022-08-29T09:58:19.178Z,26.95
2022-08-29T10:01:07.559Z,27.07
2022-08-29T10:03:39.149Z,27.14
2022-08-29T10:06:16.783Z,27.20
2022-08-29T10:08:56.066Z,27.21
2022-08-29T10:11:31.597Z,27.23
2022-08-29T10:14:06.135Z,27.33
2022-08-29T10:16:52.080Z,27.42
2022-08-29T10:19:22.927Z,27.51
2022-08-29T10:22:06.170Z,27.57
2022-08-29T10:24:55.066Z,27.66
2022-08-29T10:27:37.471Z,27.76
2022-08-29T10:30:06.908Z,27.81
2022-08-29T10:33:09.842Z,27.78
2022-08-29T10:35:44.231Z,27.63
2022-08-29T10:38:26.206Z,27.60
2022-08-29T10:41:03.183Z,27.69
2022-08-29T10:43:39.274Z,27.82
2022-08-29T10:46:32.866Z,28.01
2022-08-29T10:49:17.938Z,28.24
2022-08-29T10:52:10.786Z,28.31
2022-08-29T10:54:49.445Z,28.35
2022-08-29T10:57:41.556Z,28.36
2022-08-29T11:00:19.407Z,28.39
2022-08-29T11:03:09.202Z,28.13
2022-08-29T11:05:44.917Z,27.93
2022-08-29T11:08:22.217Z,27.76
2022-08-29T11:10:52.163Z,27.74
2022-08-29T11:13:25.099Z,27.97
2022-08-29T11:16:07.740Z,28.24
2022-08-29T11:18:40.787Z,28.30
2022-08-29T11:21:22.314Z,28.25
2022-08-29T11:23:49.166Z,28.18
2022-08-29T11:26:57.487Z,28.13
2022-08-29T11:29:27.314Z,28.23
2022-08-29T11:32:20.786Z,28.19
2022-08-29T11:35:07.521Z,28.18
2022-08-29T11:38:11.424Z,28.16
2022-08-29T11:43:49.342Z,28.23
2022-08-29T11:46:17.169Z,28.25
2022-08-29T11:48:48.118Z,28.20
2022-08-29T11:51:38.396Z,28.34
2022-08-29T11:54:25.015Z,28.30
2022-08-29T11:57:12.176Z,28.42
2022-08-29T11:59:56.997Z,28.52
2022-08-29T12:02:32.779Z,28.81
2022-08-29T12:05:01.682Z,29.11
2022-08-29T12:07:50.027Z,29.21
2022-08-29T12:10:19.640Z,29.41
2022-08-29T12:12:48.924Z,29.59
2022-08-29T12:15:27.101Z,29.72
2022-08-29T12:18:02.353Z,29.92
2022-08-29T12:20:30.266Z,30.11
2022-08-29T12:23:12.755Z,30.18
2022-08-29T12:25:43.310Z,30.26
2022-08-29T12:28:16.570Z,30.38
2022-08-29T12:30:49.884Z,30.52
2022-08-29T12:33:36.407Z,30.62
2022-08-29T12:36:16.331Z,30.65
2022-08-29T12:38:58.450Z,30.70
2022-08-29T12:41:27.952Z,30.70
2022-08-29T12:43:57.362Z,30.72
2022-08-29T12:46:51.206Z,30.78
2022-08-29T12:49:29.609Z,30.89
2022-08-29T12:51:58.442Z,31.03
2022-08-29T12:54:41.402Z,31.17
2022-08-29T12:57:20.739Z,31.29
2022-08-29T12:59:49.666Z,31.34
2022-08-29T13:02:26.651Z,31.41
2022-08-29T13:04:53.576Z,31.46
2022-08-29T13:09:59.139Z,31.48
2022-08-29T13:12:31.932Z,31.60
2022-08-29T13:15:03.214Z,31.76
2022-08-29T13:17:35.282Z,31.90
2022-08-29T13:20:43.368Z,31.96
2022-08-29T13:23:16.634Z,31.95
2022-08-29T13:25:48.551Z,31.94
2022-08-29T13:28:29.736Z,31.87
2022-08-29T13:31:07.079Z,31.77
2022-08-29T13:33:36.005Z,31.60
2022-08-29T13:36:44.942Z,31.40
2022-08-29T13:39:26.717Z,31.36
2022-08-29T13:42:03.092Z,31.21
2022-08-29T13:44:54.923Z,31.09
2022-08-29T13:47:26.352Z,31.20
2022-08-29T13:50:02.206Z,31.34
2022-08-29T13:52:31.524Z,31.20
2022-08-29T13:55:06.324Z,31.14
2022-08-29T13:57:38.462Z,31.25
2022-08-29T14:00:32.370Z,31.41
2022-08-29T14:03:05.702Z,31.50
2022-08-29T14:05:38.362Z,31.55
2022-08-29T14:08:06.636Z,31.69
2022-08-29T14:10:33.858Z,31.80
2022-08-29T14:13:05.655Z,31.61
2022-08-29T14:15:33.341Z,31.40
2022-08-29T14:18:01.215Z,31.25
2022-08-29T14:20:28.832Z,31.17
2022-08-29T14:22:56.450Z,31.12
2022-08-29T14:25:24.173Z,31.01
2022-08-29T14:27:55.823Z,30.95
2022-08-29T14:30:25.780Z,31.21
2022-08-29T14:32:53.210Z,31.26
2022-08-29T14:35:26.375Z,31.43
2022-08-29T14:38:00.181Z,31.58
2022-08-29T14:40:28.787Z,31.61
2022-08-29T14:42:57.127Z,31.48
2022-08-29T14:45:23.929Z,31.44
2022-08-29T14:47:59.040Z,31.37
2022-08-29T14:50:26.194Z,31.35
2022-08-29T14:52:53.869Z,31.24
2022-08-29T14:55:21.424Z,31.08
2022-08-29T14:57:49.113Z,30.88
2022-08-29T15:00:27.952Z,30.80
2022-08-29T15:05:36.587Z,30.66
2022-08-29T15:08:06.610Z,30.60
2022-08-29T15:10:34.393Z,30.63
2022-08-29T15:13:01.953Z,30.69
2022-08-29T15:15:31.907Z,30.93
2022-08-29T15:18:00.426Z,31.15
2022-08-29T15:20:37.144Z,31.39
2022-08-29T15:23:04.888Z,31.57
2022-08-29T15:25:31.700Z,31.76
2022-08-29T15:27:58.540Z,31.96
2022-08-29T15:30:25.782Z,32.18
2022-08-29T15:32:52.988Z,32.30
2022-08-29T15:35:20.069Z,32.36
2022-08-29T15:37:46.821Z,32.35
2022-08-29T15:40:14.368Z,38.51
2022-08-29T15:42:41.487Z,42.90
2022-08-29T15:45:12.285Z,39.08
2022-08-29T15:47:40.176Z,36.63
2022-08-29T15:50:13.886Z,35.80
2022-08-29T15:52:40.593Z,43.02
2022-08-29T15:55:07.832Z,39.64
2022-08-29T15:57:40.220Z,37.19
2022-08-29T16:00:30.294Z,35.33
2022-08-29T16:02:59.133Z,34.12
2022-08-29T16:05:26.002Z,33.19
2022-08-29T16:07:53.226Z,32.30
2022-08-29T16:10:20.082Z,31.68
2022-08-29T16:12:46.814Z,31.29
2022-08-29T16:15:13.667Z,30.96
2022-08-29T16:17:40.533Z,30.62
2022-08-29T16:20:11.528Z,30.36
2022-08-29T16:22:39.882Z,30.21
2022-08-29T16:25:08.821Z,30.48
2022-08-29T16:27:36.211Z,37.33
2022-08-29T16:30:04.333Z,42.79
2022-08-29T16:32:31.646Z,45.37
2022-08-29T16:34:58.720Z,44.71
2022-08-29T16:37:25.487Z,40.85
2022-08-29T16:39:52.275Z,37.80
2022-08-29T16:42:19.082Z,35.47
2022-08-29T16:44:45.876Z,33.89
2022-08-29T16:47:12.826Z,33.24
2022-08-29T16:49:39.790Z,32.37
2022-08-29T16:52:06.699Z,34.86
2022-08-29T16:54:33.897Z,37.45
2022-08-29T16:57:00.683Z,36.71
2022-08-29T16:59:27.691Z,35.57
2022-08-29T17:01:55.772Z,33.90
2022-08-29T17:04:25.313Z,32.55
2022-08-29T17:06:52.445Z,31.66
2022-08-29T17:09:21.581Z,30.88
2022-08-29T17:11:49.035Z,30.30
2022-08-29T17:14:16.373Z,29.88
2022-08-29T17:16:45.834Z,29.47
2022-08-29T17:19:13.478Z,29.18
2022-08-29T17:21:40.248Z,28.92
2022-08-29T17:24:07.265Z,28.66
2022-08-29T17:26:36.243Z,28.44
2022-08-29T17:29:12.342Z,28.25
2022-08-29T17:31:39.589Z,28.02
2022-08-29T17:34:08.515Z,27.79
2022-08-29T17:36:40.472Z,27.59
2022-08-29T17:39:08.113Z,27.37
2022-08-29T17:41:37.398Z,27.18
2022-08-29T17:44:10.021Z,26.97
2022-08-29T17:46:36.862Z,26.73
2022-08-29T17:49:07.910Z,26.51
2022-08-29T17:51:35.766Z,26.28
2022-08-29T17:54:04.424Z,26.10
2022-08-29T17:56:44.407Z,25.95
2022-08-29T17:59:12.698Z,25.79
2022-08-29T18:01:39.911Z,25.65
2022-08-29T18:04:06.679Z,25.50
2022-08-29T18:06:33.430Z,25.40
2022-08-29T18:09:00.471Z,25.29
2022-08-29T18:11:27.315Z,25.18
2022-08-29T18:13:55.139Z,25.08
2022-08-29T18:16:22.048Z,25.01
2022-08-29T18:18:49.265Z,24.90
2022-08-29T18:21:18.562Z,24.78
2022-08-29T18:23:45.848Z,24.65
2022-08-29T18:26:13.395Z,24.54
2022-08-29T18:28:41.030Z,24.37
2022-08-29T18:31:09.081Z,24.23
2022-08-29T18:33:59.140Z,24.13
2022-08-29T18:36:23.955Z,24.09
2022-08-29T18:38:50.880Z,24.05
2022-08-29T18:41:17.824Z,23.95
2022-08-29T18:43:44.746Z,23.89
2022-08-29T18:46:11.856Z,23.84
2022-08-29T18:48:39.769Z,23.83
2022-08-29T18:51:06.718Z,23.70
2022-08-29T18:53:33.980Z,23.62
2022-08-29T18:56:01.395Z,23.59
2022-08-29T18:58:30.959Z,23.47
2022-08-29T19:00:59.012Z,23.40
2022-08-29T19:03:25.894Z,23.33
2022-08-29T19:05:53.962Z,23.31
2022-08-29T19:08:24.654Z,23.21
2022-08-29T19:10:55.572Z,23.19
2022-08-29T19:13:25.365Z,23.08
2022-08-29T19:15:56.037Z,23.09
2022-08-29T19:18:22.867Z,23.08
2022-08-29T19:21:07.846Z,22.95
2022-08-29T19:23:41.046Z,22.87
2022-08-29T19:26:13.405Z,22.82
2022-08-29T19:28:41.596Z,22.83
2022-08-29T19:31:08.641Z,22.79
2022-08-29T19:33:42.758Z,22.75
2022-08-29T19:36:19.079Z,22.65
2022-08-29T19:38:50.090Z,22.55
2022-08-29T19:41:21.291Z,22.55
2022-08-29T19:43:48.854Z,22.54
2022-08-29T19:46:24.476Z,22.48
2022-08-29T19:48:52.894Z,22.45
2022-08-29T19:51:26.382Z,22.42
2022-08-29T19:54:02.134Z,22.40
2022-08-29T19:56:35.367Z,22.28
2022-08-29T19:59:07.806Z,22.21
2022-08-29T20:01:40.489Z,22.16
2022-08-29T20:04:13.948Z,22.04
2022-08-29T20:06:45.613Z,22.06
2022-08-29T20:11:50.008Z,22.02
2022-08-29T20:14:22.594Z,22.05
2022-08-29T20:16:54.485Z,22.05
2022-08-29T20:19:25.413Z,21.94
2022-08-29T20:21:55.024Z,21.91
2022-08-29T20:24:26.843Z,21.84
2022-08-29T20:26:59.200Z,21.82
2022-08-29T20:32:09.393Z,21.70
2022-08-29T20:34:41.802Z,21.66
2022-08-29T20:37:09.822Z,21.72
2022-08-29T20:39:43.979Z,21.76
2022-08-29T20:42:13.414Z,21.66
2022-08-29T20:44:45.418Z,21.64
2022-08-29T20:47:19.637Z,21.67
2022-08-29T20:49:54.405Z,21.62
2022-08-29T20:52:26.838Z,21.60
2022-08-29T20:54:58.172Z,21.54
2022-08-29T20:57:30.032Z,21.52
2022-08-29T21:00:04.208Z,21.44
2022-08-29T21:02:57.000Z,21.38
2022-08-29T21:05:48.582Z,21.40
2022-08-29T21:08:25.131Z,21.42
2022-08-29T21:10:57.978Z,21.44
2022-08-29T21:13:32.662Z,21.39
2022-08-29T21:16:06.127Z,21.37
2022-08-29T21:18:38.360Z,21.35
2022-08-29T21:21:14.238Z,21.32
2022-08-29T21:23:42.095Z,21.32
2022-08-29T21:26:10.114Z,21.28
2022-08-29T21:28:38.003Z,21.28
2022-08-29T21:31:12.274Z,21.24
2022-08-29T21:33:41.680Z,21.18
2022-08-29T21:36:18.731Z,21.16
2022-08-29T21:38:46.533Z,21.18
2022-08-29T21:41:14.162Z,21.15
2022-08-29T21:43:41.099Z,21.11
2022-08-29T21:46:25.121Z,21.04
2022-08-29T21:48:56.400Z,21.04
2022-08-29T21:51:23.874Z,21.02
2022-08-29T21:53:52.316Z,21.00
2022-08-29T21:56:19.613Z,20.99
2022-08-29T21:58:52.771Z,20.99
2022-08-29T22:01:30.146Z,20.92
2022-08-29T22:03:59.243Z,20.85
2022-08-29T22:06:27.601Z,20.88
2022-08-29T22:08:55.051Z,20.84
2022-08-29T22:11:37.197Z,20.82
2022-08-29T22:14:05.774Z,20.73
2022-08-29T22:16:32.663Z,20.70
2022-08-29T22:19:05.259Z,20.61
2022-08-29T22:21:36.502Z,20.69
2022-08-29T22:24:04.469Z,20.78
2022-08-29T22:26:31.298Z,20.84
2022-08-29T22:28:58.099Z,20.76
2022-08-29T22:31:25.450Z,20.66
2022-08-29T22:33:52.470Z,20.61
2022-08-29T22:36:19.545Z,20.56
2022-08-29T22:38:47.786Z,20.62
2022-08-29T22:41:22.870Z,20.71
2022-08-29T22:44:08.752Z,20.67
2022-08-29T22:46:38.149Z,20.55
2022-08-29T22:49:04.935Z,20.44
2022-08-29T22:51:31.719Z,20.47
2022-08-29T22:54:17.087Z,20.41
2022-08-29T22:56:45.429Z,20.36
2022-08-29T22:59:13.490Z,20.38
2022-08-29T23:01:42.565Z,20.42
2022-08-29T23:04:09.416Z,20.35
2022-08-29T23:06:36.418Z,20.28
2022-08-29T23:09:04.040Z,20.28
2022-08-29T23:11:31.283Z,20.26
2022-08-29T23:13:58.029Z,20.28
2022-08-29T23:16:24.799Z,20.25
2022-08-29T23:18:51.897Z,20.25
2022-08-29T23:21:19.430Z,20.27
2022-08-29T23:23:46.382Z,20.27
2022-08-29T23:26:13.110Z,20.28
2022-08-29T23:28:40.383Z,20.26
2022-08-29T23:31:07.192Z,20.22
2022-08-29T23:33:33.902Z,20.13
2022-08-29T23:36:00.843Z,20.11
2022-08-29T23:38:27.573Z,20.14
2022-08-29T23:40:56.795Z,20.17
2022-08-29T23:43:24.531Z,20.15
2022-08-29T23:45:51.949Z,20.16
2022-08-29T23:48:19.020Z,20.17
2022-08-29T23:50:53.774Z,20.18
2022-08-29T23:53:21.972Z,20.16
2022-08-29T23:55:49.554Z,20.04
2022-08-29T23:58:17.128Z,19.99
